sensor_id;sensor_type;location;lat;lon;timestamp;P1;durP1;ratioP1;P2;durP2;ratioP2
14141;SDS011;7151;52.246;4.820;2023-05-10T00:00:11;11.30;;;8.30;;
14141;SDS011;7151;52.246;4.820;2023-05-10T00:02:37;12.53;;;8.40;;
14141;SDS011;7151;52.246;4.820;2023-05-10T00:05:03;11.83;;;8.77;;
14141;SDS011;7151;52.246;4.820;2023-05-10T00:07:29;10.90;;;8.17;;
14141;SDS011;7151;52.246;4.820;2023-05-10T00:09:55;11.37;;;7.77;;
14141;SDS011;7151;52.246;4.820;2023-05-10T00:12:21;9.33;;;7.77;;
14141;SDS011;7151;52.246;4.820;2023-05-10T00:14:46;11.90;;;8.53;;
14141;SDS011;7151;52.246;4.820;2023-05-10T00:17:12;10.03;;;7.77;;
14141;SDS011;7151;52.246;4.820;2023-05-10T00:19:38;12.10;;;8.60;;
14141;SDS011;7151;52.246;4.820;2023-05-10T00:22:03;14.47;;;8.37;;
14141;SDS011;7151;52.246;4.820;2023-05-10T00:24:29;12.13;;;8.70;;
14141;SDS011;7151;52.246;4.820;2023-05-10T00:26:54;12.00;;;8.57;;
14141;SDS011;7151;52.246;4.820;2023-05-10T00:29:20;11.67;;;8.03;;
14141;SDS011;7151;52.246;4.820;2023-05-10T00:31:45;12.13;;;8.33;;
14141;SDS011;7151;52.246;4.820;2023-05-10T00:34:11;11.67;;;8.23;;
14141;SDS011;7151;52.246;4.820;2023-05-10T00:36:36;10.17;;;7.50;;
14141;SDS011;7151;52.246;4.820;2023-05-10T00:39:02;15.73;;;8.43;;
14141;SDS011;7151;52.246;4.820;2023-05-10T00:41:28;12.80;;;9.83;;
14141;SDS011;7151;52.246;4.820;2023-05-10T00:43:57;12.80;;;9.00;;
14141;SDS011;7151;52.246;4.820;2023-05-10T00:46:22;11.00;;;8.53;;
14141;SDS011;7151;52.246;4.820;2023-05-10T00:48:48;13.17;;;9.10;;
14141;SDS011;7151;52.246;4.820;2023-05-10T00:51:14;13.67;;;8.87;;
14141;SDS011;7151;52.246;4.820;2023-05-10T00:53:40;8.90;;;7.33;;
14141;SDS011;7151;52.246;4.820;2023-05-10T00:56:06;10.27;;;7.77;;
14141;SDS011;7151;52.246;4.820;2023-05-10T00:58:31;12.57;;;8.37;;
14141;SDS011;7151;52.246;4.820;2023-05-10T01:00:58;12.97;;;8.70;;
14141;SDS011;7151;52.246;4.820;2023-05-10T01:03:24;11.23;;;7.70;;
14141;SDS011;7151;52.246;4.820;2023-05-10T01:05:50;11.43;;;8.43;;
14141;SDS011;7151;52.246;4.820;2023-05-10T01:08:16;11.33;;;8.50;;
14141;SDS011;7151;52.246;4.820;2023-05-10T01:10:42;9.57;;;7.63;;
14141;SDS011;7151;52.246;4.820;2023-05-10T01:13:09;13.27;;;8.83;;
14141;SDS011;7151;52.246;4.820;2023-05-10T01:15:35;12.37;;;9.87;;
14141;SDS011;7151;52.246;4.820;2023-05-10T01:18:01;11.13;;;8.80;;
14141;SDS011;7151;52.246;4.820;2023-05-10T01:20:29;12.17;;;8.83;;
14141;SDS011;7151;52.246;4.820;2023-05-10T01:34:35;20.90;;;10.10;;
14141;SDS011;7151;52.246;4.820;2023-05-10T01:37:10;16.07;;;9.63;;
14141;SDS011;7151;52.246;4.820;2023-05-10T01:39:45;12.27;;;9.83;;
14141;SDS011;7151;52.246;4.820;2023-05-10T01:42:16;13.60;;;10.17;;
14141;SDS011;7151;52.246;4.820;2023-05-10T01:44:53;14.63;;;9.43;;
14141;SDS011;7151;52.246;4.820;2023-05-10T01:49:54;13.83;;;9.87;;
14141;SDS011;7151;52.246;4.820;2023-05-10T01:52:33;12.60;;;9.70;;
14141;SDS011;7151;52.246;4.820;2023-05-10T01:55:09;14.57;;;11.00;;
14141;SDS011;7151;52.246;4.820;2023-05-10T01:57:39;14.93;;;10.67;;
14141;SDS011;7151;52.246;4.820;2023-05-10T02:00:07;15.37;;;10.87;;
14141;SDS011;7151;52.246;4.820;2023-05-10T02:02:38;14.67;;;10.60;;
14141;SDS011;7151;52.246;4.820;2023-05-10T02:05:07;15.93;;;10.63;;
14141;SDS011;7151;52.246;4.820;2023-05-10T02:07:34;13.43;;;10.20;;
14141;SDS011;7151;52.246;4.820;2023-05-10T02:10:05;18.27;;;11.17;;
14141;SDS011;7151;52.246;4.820;2023-05-10T02:12:35;15.90;;;11.90;;
14141;SDS011;7151;52.246;4.820;2023-05-10T02:15:03;17.40;;;11.37;;
14141;SDS011;7151;52.246;4.820;2023-05-10T02:17:31;18.03;;;12.20;;
14141;SDS011;7151;52.246;4.820;2023-05-10T02:19:58;15.13;;;11.90;;
14141;SDS011;7151;52.246;4.820;2023-05-10T02:22:26;23.17;;;12.57;;
14141;SDS011;7151;52.246;4.820;2023-05-10T02:24:53;21.67;;;13.23;;
14141;SDS011;7151;52.246;4.820;2023-05-10T02:27:23;23.03;;;13.30;;
14141;SDS011;7151;52.246;4.820;2023-05-10T02:29:50;19.23;;;13.13;;
14141;SDS011;7151;52.246;4.820;2023-05-10T02:32:17;18.33;;;11.77;;
14141;SDS011;7151;52.246;4.820;2023-05-10T02:34:43;18.43;;;12.77;;
14141;SDS011;7151;52.246;4.820;2023-05-10T02:37:11;19.00;;;13.33;;
14141;SDS011;7151;52.246;4.820;2023-05-10T02:39:39;20.17;;;12.53;;
14141;SDS011;7151;52.246;4.820;2023-05-10T02:42:09;18.03;;;11.47;;
14141;SDS011;7151;52.246;4.820;2023-05-10T02:44:39;19.43;;;11.03;;
14141;SDS011;7151;52.246;4.820;2023-05-10T02:47:07;20.17;;;11.87;;
14141;SDS011;7151;52.246;4.820;2023-05-10T02:49:32;21.77;;;13.10;;
14141;SDS011;7151;52.246;4.820;2023-05-10T02:52:00;18.93;;;12.50;;
14141;SDS011;7151;52.246;4.820;2023-05-10T02:54:30;16.57;;;11.43;;
14141;SDS011;7151;52.246;4.820;2023-05-10T02:56:58;20.20;;;11.57;;
14141;SDS011;7151;52.246;4.820;2023-05-10T02:59:27;23.87;;;12.53;;
14141;SDS011;7151;52.246;4.820;2023-05-10T03:01:53;24.73;;;11.77;;
14141;SDS011;7151;52.246;4.820;2023-05-10T03:04:19;19.13;;;12.00;;
14141;SDS011;7151;52.246;4.820;2023-05-10T03:06:44;20.67;;;13.50;;
14141;SDS011;7151;52.246;4.820;2023-05-10T03:09:10;23.50;;;13.60;;
14141;SDS011;7151;52.246;4.820;2023-05-10T03:14:53;23.10;;;13.87;;
14141;SDS011;7151;52.246;4.820;2023-05-10T03:17:29;22.57;;;12.70;;
14141;SDS011;7151;52.246;4.820;2023-05-10T03:20:04;23.90;;;15.03;;
14141;SDS011;7151;52.246;4.820;2023-05-10T03:22:45;21.50;;;14.33;;
14141;SDS011;7151;52.246;4.820;2023-05-10T03:25:15;19.07;;;13.20;;
14141;SDS011;7151;52.246;4.820;2023-05-10T03:27:43;21.57;;;13.27;;
14141;SDS011;7151;52.246;4.820;2023-05-10T03:30:12;18.00;;;11.70;;
14141;SDS011;7151;52.246;4.820;2023-05-10T03:32:38;16.13;;;11.17;;
14141;SDS011;7151;52.246;4.820;2023-05-10T03:35:07;16.00;;;10.73;;
14141;SDS011;7151;52.246;4.820;2023-05-10T03:37:34;17.70;;;11.23;;
14141;SDS011;7151;52.246;4.820;2023-05-10T03:40:00;20.43;;;13.17;;
14141;SDS011;7151;52.246;4.820;2023-05-10T03:42:26;17.57;;;11.67;;
14141;SDS011;7151;52.246;4.820;2023-05-10T03:44:51;20.47;;;11.67;;
14141;SDS011;7151;52.246;4.820;2023-05-10T03:47:17;20.10;;;11.80;;
14141;SDS011;7151;52.246;4.820;2023-05-10T03:49:42;17.97;;;12.23;;
14141;SDS011;7151;52.246;4.820;2023-05-10T03:52:08;17.80;;;11.70;;
14141;SDS011;7151;52.246;4.820;2023-05-10T03:54:33;18.07;;;12.60;;
14141;SDS011;7151;52.246;4.820;2023-05-10T03:56:59;18.77;;;11.60;;
14141;SDS011;7151;52.246;4.820;2023-05-10T03:59:25;17.50;;;10.17;;
14141;SDS011;7151;52.246;4.820;2023-05-10T04:01:51;16.10;;;8.73;;
14141;SDS011;7151;52.246;4.820;2023-05-10T04:04:17;14.97;;;7.97;;
14141;SDS011;7151;52.246;4.820;2023-05-10T04:06:43;12.17;;;7.00;;
14141;SDS011;7151;52.246;4.820;2023-05-10T04:09:09;14.57;;;5.63;;
14141;SDS011;7151;52.246;4.820;2023-05-10T04:11:35;10.27;;;5.57;;
14141;SDS011;7151;52.246;4.820;2023-05-10T04:14:01;9.07;;;5.63;;
14141;SDS011;7151;52.246;4.820;2023-05-10T04:16:26;9.10;;;5.73;;
14141;SDS011;7151;52.246;4.820;2023-05-10T04:18:52;9.63;;;5.20;;
14141;SDS011;7151;52.246;4.820;2023-05-10T04:21:18;8.43;;;5.00;;
14141;SDS011;7151;52.246;4.820;2023-05-10T04:23:43;8.83;;;4.37;;
14141;SDS011;7151;52.246;4.820;2023-05-10T04:26:09;8.40;;;5.23;;
14141;SDS011;7151;52.246;4.820;2023-05-10T04:28:35;9.63;;;4.60;;
14141;SDS011;7151;52.246;4.820;2023-05-10T04:31:01;7.47;;;4.97;;
14141;SDS011;7151;52.246;4.820;2023-05-10T04:33:30;6.73;;;4.60;;
14141;SDS011;7151;52.246;4.820;2023-05-10T04:35:56;8.50;;;5.17;;
14141;SDS011;7151;52.246;4.820;2023-05-10T04:38:22;7.87;;;4.93;;
14141;SDS011;7151;52.246;4.820;2023-05-10T04:40:48;9.37;;;5.43;;
14141;SDS011;7151;52.246;4.820;2023-05-10T04:43:14;9.17;;;5.43;;
14141;SDS011;7151;52.246;4.820;2023-05-10T04:45:39;9.00;;;5.50;;
14141;SDS011;7151;52.246;4.820;2023-05-10T04:48:05;9.57;;;5.37;;
14141;SDS011;7151;52.246;4.820;2023-05-10T04:50:31;7.83;;;5.20;;
14141;SDS011;7151;52.246;4.820;2023-05-10T04:52:56;10.40;;;5.73;;
14141;SDS011;7151;52.246;4.820;2023-05-10T04:55:22;6.73;;;4.83;;
14141;SDS011;7151;52.246;4.820;2023-05-10T04:57:48;9.53;;;5.70;;
14141;SDS011;7151;52.246;4.820;2023-05-10T05:00:14;9.60;;;6.23;;
14141;SDS011;7151;52.246;4.820;2023-05-10T05:02:43;8.67;;;5.43;;
14141;SDS011;7151;52.246;4.820;2023-05-10T05:05:10;10.60;;;6.27;;
14141;SDS011;7151;52.246;4.820;2023-05-10T05:07:36;12.23;;;6.80;;
14141;SDS011;7151;52.246;4.820;2023-05-10T05:10:03;9.60;;;6.17;;
14141;SDS011;7151;52.246;4.820;2023-05-10T05:12:33;14.07;;;6.30;;
14141;SDS011;7151;52.246;4.820;2023-05-10T05:14:59;10.20;;;6.07;;
14141;SDS011;7151;52.246;4.820;2023-05-10T05:17:25;9.03;;;5.03;;
14141;SDS011;7151;52.246;4.820;2023-05-10T05:19:51;7.97;;;5.10;;
14141;SDS011;7151;52.246;4.820;2023-05-10T05:22:16;9.73;;;5.73;;
14141;SDS011;7151;52.246;4.820;2023-05-10T05:24:42;6.97;;;4.07;;
14141;SDS011;7151;52.246;4.820;2023-05-10T05:27:08;7.23;;;4.93;;
14141;SDS011;7151;52.246;4.820;2023-05-10T05:29:33;8.50;;;5.03;;
14141;SDS011;7151;52.246;4.820;2023-05-10T05:31:59;7.73;;;4.60;;
14141;SDS011;7151;52.246;4.820;2023-05-10T05:34:25;8.43;;;4.93;;
14141;SDS011;7151;52.246;4.820;2023-05-10T05:36:51;9.33;;;5.27;;
14141;SDS011;7151;52.246;4.820;2023-05-10T05:39:16;8.20;;;5.13;;
14141;SDS011;7151;52.246;4.820;2023-05-10T05:41:42;9.80;;;5.67;;
14141;SDS011;7151;52.246;4.820;2023-05-10T05:44:07;8.03;;;4.53;;
14141;SDS011;7151;52.246;4.820;2023-05-10T05:46:33;7.77;;;5.33;;
14141;SDS011;7151;52.246;4.820;2023-05-10T05:48:58;10.13;;;5.00;;
14141;SDS011;7151;52.246;4.820;2023-05-10T05:51:24;9.63;;;5.70;;
14141;SDS011;7151;52.246;4.820;2023-05-10T05:53:50;6.73;;;4.83;;
14141;SDS011;7151;52.246;4.820;2023-05-10T05:56:15;8.33;;;5.23;;
14141;SDS011;7151;52.246;4.820;2023-05-10T05:58:42;8.80;;;5.17;;
14141;SDS011;7151;52.246;4.820;2023-05-10T06:01:08;10.30;;;5.40;;
14141;SDS011;7151;52.246;4.820;2023-05-10T06:03:34;9.00;;;5.30;;
14141;SDS011;7151;52.246;4.820;2023-05-10T06:05:59;8.90;;;5.23;;
14141;SDS011;7151;52.246;4.820;2023-05-10T06:08:25;8.63;;;5.53;;
14141;SDS011;7151;52.246;4.820;2023-05-10T06:10:50;7.50;;;5.10;;
14141;SDS011;7151;52.246;4.820;2023-05-10T06:13:16;9.40;;;5.00;;
14141;SDS011;7151;52.246;4.820;2023-05-10T06:15:42;7.87;;;4.63;;
14141;SDS011;7151;52.246;4.820;2023-05-10T06:18:07;8.27;;;4.77;;
14141;SDS011;7151;52.246;4.820;2023-05-10T06:20:33;11.13;;;5.50;;
14141;SDS011;7151;52.246;4.820;2023-05-10T06:22:58;7.97;;;4.53;;
14141;SDS011;7151;52.246;4.820;2023-05-10T06:25:24;8.23;;;5.10;;
14141;SDS011;7151;52.246;4.820;2023-05-10T06:27:50;9.30;;;5.47;;
14141;SDS011;7151;52.246;4.820;2023-05-10T06:30:15;8.77;;;5.27;;
14141;SDS011;7151;52.246;4.820;2023-05-10T06:32:41;7.83;;;4.90;;
14141;SDS011;7151;52.246;4.820;2023-05-10T06:35:08;7.53;;;4.87;;
14141;SDS011;7151;52.246;4.820;2023-05-10T06:37:34;7.30;;;4.80;;
14141;SDS011;7151;52.246;4.820;2023-05-10T06:40:00;8.27;;;5.17;;
14141;SDS011;7151;52.246;4.820;2023-05-10T06:42:25;8.90;;;5.20;;
14141;SDS011;7151;52.246;4.820;2023-05-10T06:44:52;8.93;;;5.47;;
14141;SDS011;7151;52.246;4.820;2023-05-10T06:47:18;8.37;;;4.93;;
14141;SDS011;7151;52.246;4.820;2023-05-10T06:49:43;8.57;;;5.40;;
14141;SDS011;7151;52.246;4.820;2023-05-10T06:52:09;8.57;;;5.37;;
14141;SDS011;7151;52.246;4.820;2023-05-10T06:54:34;8.10;;;4.27;;
14141;SDS011;7151;52.246;4.820;2023-05-10T06:57:00;7.77;;;4.73;;
14141;SDS011;7151;52.246;4.820;2023-05-10T06:59:27;8.07;;;5.20;;
14141;SDS011;7151;52.246;4.820;2023-05-10T07:01:53;10.47;;;4.93;;
14141;SDS011;7151;52.246;4.820;2023-05-10T07:04:19;7.83;;;4.53;;
14141;SDS011;7151;52.246;4.820;2023-05-10T07:06:44;7.17;;;5.37;;
14141;SDS011;7151;52.246;4.820;2023-05-10T07:09:11;10.70;;;4.90;;
14141;SDS011;7151;52.246;4.820;2023-05-10T07:11:36;8.73;;;4.40;;
14141;SDS011;7151;52.246;4.820;2023-05-10T07:14:02;5.50;;;3.77;;
14141;SDS011;7151;52.246;4.820;2023-05-10T07:16:28;7.57;;;3.80;;
14141;SDS011;7151;52.246;4.820;2023-05-10T07:18:53;6.63;;;4.20;;
14141;SDS011;7151;52.246;4.820;2023-05-10T07:21:19;5.87;;;4.23;;
14141;SDS011;7151;52.246;4.820;2023-05-10T07:23:45;5.80;;;3.40;;
14141;SDS011;7151;52.246;4.820;2023-05-10T07:26:10;8.07;;;3.73;;
14141;SDS011;7151;52.246;4.820;2023-05-10T07:28:36;5.53;;;3.67;;
14141;SDS011;7151;52.246;4.820;2023-05-10T07:31:02;8.30;;;3.90;;
14141;SDS011;7151;52.246;4.820;2023-05-10T07:33:28;5.23;;;3.47;;
14141;SDS011;7151;52.246;4.820;2023-05-10T07:35:53;3.83;;;3.17;;
14141;SDS011;7151;52.246;4.820;2023-05-10T07:38:19;4.70;;;2.90;;
14141;SDS011;7151;52.246;4.820;2023-05-10T07:40:45;4.17;;;3.30;;
14141;SDS011;7151;52.246;4.820;2023-05-10T07:43:10;3.13;;;2.30;;
14141;SDS011;7151;52.246;4.820;2023-05-10T07:45:36;3.67;;;2.67;;
14141;SDS011;7151;52.246;4.820;2023-05-10T07:48:02;4.00;;;2.60;;
14141;SDS011;7151;52.246;4.820;2023-05-10T07:50:27;3.53;;;2.53;;
14141;SDS011;7151;52.246;4.820;2023-05-10T07:52:53;4.03;;;2.87;;
14141;SDS011;7151;52.246;4.820;2023-05-10T07:55:19;5.47;;;2.87;;
14141;SDS011;7151;52.246;4.820;2023-05-10T07:57:46;5.60;;;2.43;;
14141;SDS011;7151;52.246;4.820;2023-05-10T08:00:12;3.67;;;2.37;;
14141;SDS011;7151;52.246;4.820;2023-05-10T08:02:41;4.50;;;2.30;;
14141;SDS011;7151;52.246;4.820;2023-05-10T08:05:07;4.30;;;2.70;;
14141;SDS011;7151;52.246;4.820;2023-05-10T08:07:33;2.67;;;2.40;;
14141;SDS011;7151;52.246;4.820;2023-05-10T08:09:58;3.80;;;2.33;;
14141;SDS011;7151;52.246;4.820;2023-05-10T08:12:24;2.60;;;2.33;;
14141;SDS011;7151;52.246;4.820;2023-05-10T08:14:49;5.07;;;2.47;;
14141;SDS011;7151;52.246;4.820;2023-05-10T08:17:15;2.83;;;2.20;;
14141;SDS011;7151;52.246;4.820;2023-05-10T08:19:41;3.83;;;2.10;;
14141;SDS011;7151;52.246;4.820;2023-05-10T08:22:06;3.50;;;2.43;;
14141;SDS011;7151;52.246;4.820;2023-05-10T08:24:32;4.77;;;2.40;;
14141;SDS011;7151;52.246;4.820;2023-05-10T08:26:59;2.83;;;2.17;;
14141;SDS011;7151;52.246;4.820;2023-05-10T08:29:25;2.77;;;2.47;;
14141;SDS011;7151;52.246;4.820;2023-05-10T08:31:51;4.00;;;2.83;;
14141;SDS011;7151;52.246;4.820;2023-05-10T08:34:16;3.47;;;2.47;;
14141;SDS011;7151;52.246;4.820;2023-05-10T08:36:42;3.03;;;2.47;;
14141;SDS011;7151;52.246;4.820;2023-05-10T08:39:08;4.47;;;2.70;;
14141;SDS011;7151;52.246;4.820;2023-05-10T08:41:34;4.63;;;2.43;;
14141;SDS011;7151;52.246;4.820;2023-05-10T08:44:03;6.57;;;2.83;;
14141;SDS011;7151;52.246;4.820;2023-05-10T08:46:30;4.03;;;2.87;;
14141;SDS011;7151;52.246;4.820;2023-05-10T08:48:58;4.30;;;2.40;;
14141;SDS011;7151;52.246;4.820;2023-05-10T08:51:29;4.67;;;2.43;;
14141;SDS011;7151;52.246;4.820;2023-05-10T08:53:58;4.33;;;2.90;;
14141;SDS011;7151;52.246;4.820;2023-05-10T08:56:24;3.33;;;2.67;;
14141;SDS011;7151;52.246;4.820;2023-05-10T08:58:50;3.47;;;2.57;;
14141;SDS011;7151;52.246;4.820;2023-05-10T09:01:16;4.70;;;2.23;;
14141;SDS011;7151;52.246;4.820;2023-05-10T09:03:45;4.17;;;3.47;;
14141;SDS011;7151;52.246;4.820;2023-05-10T09:06:12;7.37;;;2.70;;
14141;SDS011;7151;52.246;4.820;2023-05-10T09:08:38;4.43;;;2.80;;
14141;SDS011;7151;52.246;4.820;2023-05-10T09:11:05;3.83;;;2.40;;
14141;SDS011;7151;52.246;4.820;2023-05-10T09:13:30;3.30;;;2.37;;
14141;SDS011;7151;52.246;4.820;2023-05-10T09:15:57;6.37;;;3.00;;
14141;SDS011;7151;52.246;4.820;2023-05-10T09:18:23;6.10;;;2.27;;
14141;SDS011;7151;52.246;4.820;2023-05-10T09:20:49;3.77;;;2.47;;
14141;SDS011;7151;52.246;4.820;2023-05-10T09:23:14;5.20;;;2.07;;
14141;SDS011;7151;52.246;4.820;2023-05-10T09:25:43;3.27;;;2.23;;
14141;SDS011;7151;52.246;4.820;2023-05-10T09:28:09;4.60;;;2.57;;
14141;SDS011;7151;52.246;4.820;2023-05-10T09:30:35;3.33;;;2.03;;
14141;SDS011;7151;52.246;4.820;2023-05-10T09:33:01;4.57;;;2.80;;
14141;SDS011;7151;52.246;4.820;2023-05-10T09:35:28;2.90;;;2.40;;
14141;SDS011;7151;52.246;4.820;2023-05-10T09:38:01;5.80;;;2.67;;
14141;SDS011;7151;52.246;4.820;2023-05-10T09:40:29;6.17;;;3.10;;
14141;SDS011;7151;52.246;4.820;2023-05-10T09:43:07;4.23;;;3.17;;
14141;SDS011;7151;52.246;4.820;2023-05-10T09:45:34;8.10;;;2.90;;
14141;SDS011;7151;52.246;4.820;2023-05-10T09:48:01;3.27;;;2.50;;
14141;SDS011;7151;52.246;4.820;2023-05-10T09:50:28;4.60;;;2.60;;
14141;SDS011;7151;52.246;4.820;2023-05-10T09:55:43;4.87;;;2.23;;
14141;SDS011;7151;52.246;4.820;2023-05-10T09:58:10;5.03;;;2.70;;
14141;SDS011;7151;52.246;4.820;2023-05-10T10:00:38;7.03;;;2.60;;
14141;SDS011;7151;52.246;4.820;2023-05-10T10:03:05;4.80;;;3.13;;
14141;SDS011;7151;52.246;4.820;2023-05-10T10:05:34;4.40;;;2.30;;
14141;SDS011;7151;52.246;4.820;2023-05-10T10:08:02;4.13;;;2.63;;
14141;SDS011;7151;52.246;4.820;2023-05-10T10:10:29;5.30;;;2.63;;
14141;SDS011;7151;52.246;4.820;2023-05-10T10:12:57;5.57;;;2.43;;
14141;SDS011;7151;52.246;4.820;2023-05-10T10:15:23;5.87;;;3.13;;
14141;SDS011;7151;52.246;4.820;2023-05-10T10:17:49;4.63;;;2.77;;
14141;SDS011;7151;52.246;4.820;2023-05-10T10:20:16;7.90;;;3.10;;
14141;SDS011;7151;52.246;4.820;2023-05-10T10:22:42;4.93;;;2.67;;
14141;SDS011;7151;52.246;4.820;2023-05-10T10:25:14;4.93;;;2.87;;
14141;SDS011;7151;52.246;4.820;2023-05-10T10:27:49;6.83;;;3.10;;
14141;SDS011;7151;52.246;4.820;2023-05-10T10:35:29;5.37;;;2.97;;
14141;SDS011;7151;52.246;4.820;2023-05-10T10:37:55;4.03;;;2.37;;
14141;SDS011;7151;52.246;4.820;2023-05-10T10:42:51;6.10;;;3.03;;
14141;SDS011;7151;52.246;4.820;2023-05-10T10:45:18;6.93;;;3.60;;
14141;SDS011;7151;52.246;4.820;2023-05-10T10:47:44;4.17;;;2.40;;
14141;SDS011;7151;52.246;4.820;2023-05-10T10:50:10;8.27;;;3.00;;
14141;SDS011;7151;52.246;4.820;2023-05-10T10:52:41;4.60;;;2.50;;
14141;SDS011;7151;52.246;4.820;2023-05-10T11:00:30;2.10;;;1.53;;
14141;SDS011;7151;52.246;4.820;2023-05-10T11:03:10;1.53;;;1.40;;
14141;SDS011;7151;52.246;4.820;2023-05-10T11:05:44;2.27;;;1.80;;
14141;SDS011;7151;52.246;4.820;2023-05-10T11:08:20;1.97;;;1.63;;
14141;SDS011;7151;52.246;4.820;2023-05-10T11:15:57;2.20;;;1.53;;
14141;SDS011;7151;52.246;4.820;2023-05-10T11:20:51;2.10;;;1.40;;
14141;SDS011;7151;52.246;4.820;2023-05-10T11:23:20;3.87;;;2.57;;
14141;SDS011;7151;52.246;4.820;2023-05-10T11:25:47;4.27;;;2.43;;
14141;SDS011;7151;52.246;4.820;2023-05-10T11:28:13;5.93;;;3.37;;
14141;SDS011;7151;52.246;4.820;2023-05-10T11:30:40;4.70;;;3.07;;
14141;SDS011;7151;52.246;4.820;2023-05-10T11:33:07;5.60;;;3.83;;
14141;SDS011;7151;52.246;4.820;2023-05-10T11:35:39;6.10;;;3.87;;
14141;SDS011;7151;52.246;4.820;2023-05-10T11:38:09;7.53;;;4.27;;
14141;SDS011;7151;52.246;4.820;2023-05-10T11:40:35;6.13;;;4.53;;
14141;SDS011;7151;52.246;4.820;2023-05-10T11:43:02;10.13;;;4.60;;
14141;SDS011;7151;52.246;4.820;2023-05-10T11:45:31;7.87;;;4.40;;
14141;SDS011;7151;52.246;4.820;2023-05-10T11:47:58;6.97;;;4.13;;
14141;SDS011;7151;52.246;4.820;2023-05-10T11:50:24;7.73;;;4.33;;
14141;SDS011;7151;52.246;4.820;2023-05-10T11:52:54;6.97;;;3.90;;
14141;SDS011;7151;52.246;4.820;2023-05-10T11:55:21;8.00;;;3.97;;
14141;SDS011;7151;52.246;4.820;2023-05-10T11:57:51;9.67;;;5.50;;
14141;SDS011;7151;52.246;4.820;2023-05-10T12:00:17;10.20;;;5.47;;
14141;SDS011;7151;52.246;4.820;2023-05-10T12:02:43;9.47;;;5.47;;
14141;SDS011;7151;52.246;4.820;2023-05-10T12:05:09;8.13;;;5.63;;
14141;SDS011;7151;52.246;4.820;2023-05-10T12:07:35;9.37;;;5.30;;
14141;SDS011;7151;52.246;4.820;2023-05-10T12:10:10;9.50;;;4.93;;
14141;SDS011;7151;52.246;4.820;2023-05-10T12:12:42;9.10;;;6.07;;
14141;SDS011;7151;52.246;4.820;2023-05-10T12:15:12;12.13;;;5.60;;
14141;SDS011;7151;52.246;4.820;2023-05-10T12:17:49;10.20;;;6.10;;
14141;SDS011;7151;52.246;4.820;2023-05-10T12:20:19;6.67;;;4.70;;
14141;SDS011;7151;52.246;4.820;2023-05-10T12:22:50;14.60;;;6.47;;
14141;SDS011;7151;52.246;4.820;2023-05-10T12:25:21;7.60;;;5.07;;
14141;SDS011;7151;52.246;4.820;2023-05-10T12:27:51;10.43;;;5.40;;
14141;SDS011;7151;52.246;4.820;2023-05-10T12:30:19;8.77;;;5.20;;
14141;SDS011;7151;52.246;4.820;2023-05-10T12:32:48;9.60;;;4.93;;
14141;SDS011;7151;52.246;4.820;2023-05-10T12:35:14;5.53;;;3.57;;
14141;SDS011;7151;52.246;4.820;2023-05-10T12:37:41;9.00;;;4.57;;
14141;SDS011;7151;52.246;4.820;2023-05-10T12:40:08;10.53;;;4.83;;
14141;SDS011;7151;52.246;4.820;2023-05-10T12:42:35;8.80;;;3.93;;
14141;SDS011;7151;52.246;4.820;2023-05-10T12:45:02;8.23;;;4.47;;
14141;SDS011;7151;52.246;4.820;2023-05-10T12:47:29;6.83;;;4.13;;
14141;SDS011;7151;52.246;4.820;2023-05-10T12:49:55;5.57;;;3.37;;
14141;SDS011;7151;52.246;4.820;2023-05-10T12:52:20;7.50;;;4.30;;
14141;SDS011;7151;52.246;4.820;2023-05-10T12:54:46;8.00;;;4.20;;
14141;SDS011;7151;52.246;4.820;2023-05-10T12:57:12;7.70;;;4.63;;
14141;SDS011;7151;52.246;4.820;2023-05-10T12:59:38;7.23;;;4.07;;
14141;SDS011;7151;52.246;4.820;2023-05-10T13:02:04;7.03;;;3.67;;
14141;SDS011;7151;52.246;4.820;2023-05-10T13:04:30;9.80;;;4.30;;
14141;SDS011;7151;52.246;4.820;2023-05-10T13:06:56;8.47;;;4.83;;
14141;SDS011;7151;52.246;4.820;2023-05-10T13:09:24;7.23;;;4.00;;
14141;SDS011;7151;52.246;4.820;2023-05-10T13:11:50;7.50;;;4.70;;
14141;SDS011;7151;52.246;4.820;2023-05-10T13:14:18;7.17;;;4.20;;
14141;SDS011;7151;52.246;4.820;2023-05-10T13:16:45;5.80;;;4.20;;
14141;SDS011;7151;52.246;4.820;2023-05-10T13:19:11;6.10;;;4.23;;
14141;SDS011;7151;52.246;4.820;2023-05-10T13:21:37;9.37;;;4.37;;
14141;SDS011;7151;52.246;4.820;2023-05-10T13:24:03;7.97;;;3.73;;
14141;SDS011;7151;52.246;4.820;2023-05-10T13:26:28;7.20;;;4.00;;
14141;SDS011;7151;52.246;4.820;2023-05-10T13:28:54;5.73;;;3.67;;
14141;SDS011;7151;52.246;4.820;2023-05-10T13:31:20;6.97;;;3.37;;
14141;SDS011;7151;52.246;4.820;2023-05-10T13:33:46;6.53;;;3.70;;
14141;SDS011;7151;52.246;4.820;2023-05-10T13:36:11;7.10;;;4.13;;
14141;SDS011;7151;52.246;4.820;2023-05-10T13:38:37;5.03;;;3.40;;
14141;SDS011;7151;52.246;4.820;2023-05-10T13:41:03;6.17;;;3.97;;
14141;SDS011;7151;52.246;4.820;2023-05-10T13:43:29;7.37;;;3.27;;
14141;SDS011;7151;52.246;4.820;2023-05-10T13:45:54;6.80;;;3.57;;
14141;SDS011;7151;52.246;4.820;2023-05-10T13:48:20;5.80;;;3.67;;
14141;SDS011;7151;52.246;4.820;2023-05-10T13:50:46;7.10;;;3.63;;
14141;SDS011;7151;52.246;4.820;2023-05-10T13:53:12;7.17;;;3.57;;
14141;SDS011;7151;52.246;4.820;2023-05-10T13:55:37;4.87;;;2.70;;
14141;SDS011;7151;52.246;4.820;2023-05-10T13:58:03;8.40;;;2.90;;
14141;SDS011;7151;52.246;4.820;2023-05-10T14:00:28;4.33;;;2.53;;
14141;SDS011;7151;52.246;4.820;2023-05-10T14:02:54;4.03;;;2.77;;
14141;SDS011;7151;52.246;4.820;2023-05-10T14:05:20;4.70;;;2.67;;
14141;SDS011;7151;52.246;4.820;2023-05-10T14:07:45;4.30;;;2.53;;
14141;SDS011;7151;52.246;4.820;2023-05-10T14:10:11;4.77;;;2.60;;
14141;SDS011;7151;52.246;4.820;2023-05-10T14:12:37;4.97;;;2.60;;
14141;SDS011;7151;52.246;4.820;2023-05-10T14:15:03;3.23;;;2.07;;
14141;SDS011;7151;52.246;4.820;2023-05-10T14:17:31;3.27;;;1.90;;
14141;SDS011;7151;52.246;4.820;2023-05-10T14:19:57;6.53;;;1.97;;
14141;SDS011;7151;52.246;4.820;2023-05-10T14:22:22;2.30;;;1.57;;
14141;SDS011;7151;52.246;4.820;2023-05-10T14:24:48;2.43;;;1.93;;
14141;SDS011;7151;52.246;4.820;2023-05-10T14:27:14;2.17;;;1.83;;
14141;SDS011;7151;52.246;4.820;2023-05-10T14:29:40;2.67;;;1.80;;
14141;SDS011;7151;52.246;4.820;2023-05-10T14:32:05;3.70;;;2.10;;
14141;SDS011;7151;52.246;4.820;2023-05-10T14:34:31;3.57;;;1.87;;
14141;SDS011;7151;52.246;4.820;2023-05-10T14:36:57;2.30;;;2.00;;
14141;SDS011;7151;52.246;4.820;2023-05-10T14:39:23;4.60;;;1.80;;
14141;SDS011;7151;52.246;4.820;2023-05-10T14:41:48;3.17;;;2.20;;
14141;SDS011;7151;52.246;4.820;2023-05-10T14:44:16;4.43;;;2.37;;
14141;SDS011;7151;52.246;4.820;2023-05-10T14:46:41;4.73;;;2.97;;
14141;SDS011;7151;52.246;4.820;2023-05-10T14:49:07;4.60;;;2.57;;
14141;SDS011;7151;52.246;4.820;2023-05-10T14:51:33;3.67;;;2.53;;
14141;SDS011;7151;52.246;4.820;2023-05-10T14:53:59;4.17;;;2.17;;
14141;SDS011;7151;52.246;4.820;2023-05-10T14:56:24;4.97;;;3.03;;
14141;SDS011;7151;52.246;4.820;2023-05-10T14:58:51;3.87;;;2.67;;
14141;SDS011;7151;52.246;4.820;2023-05-10T15:01:16;3.23;;;2.50;;
14141;SDS011;7151;52.246;4.820;2023-05-10T15:03:42;5.93;;;3.33;;
14141;SDS011;7151;52.246;4.820;2023-05-10T15:06:08;4.93;;;2.10;;
14141;SDS011;7151;52.246;4.820;2023-05-10T15:08:34;3.37;;;2.80;;
14141;SDS011;7151;52.246;4.820;2023-05-10T15:10:59;5.10;;;2.70;;
14141;SDS011;7151;52.246;4.820;2023-05-10T15:13:25;5.00;;;2.70;;
14141;SDS011;7151;52.246;4.820;2023-05-10T15:15:51;4.57;;;2.97;;
14141;SDS011;7151;52.246;4.820;2023-05-10T15:18:16;3.90;;;2.53;;
14141;SDS011;7151;52.246;4.820;2023-05-10T15:20:42;6.87;;;3.20;;
14141;SDS011;7151;52.246;4.820;2023-05-10T15:23:07;7.00;;;3.20;;
14141;SDS011;7151;52.246;4.820;2023-05-10T15:25:33;4.33;;;2.90;;
14141;SDS011;7151;52.246;4.820;2023-05-10T15:28:04;5.23;;;2.97;;
14141;SDS011;7151;52.246;4.820;2023-05-10T15:30:30;5.43;;;3.23;;
14141;SDS011;7151;52.246;4.820;2023-05-10T15:32:55;7.37;;;4.17;;